Time;durP1;ratioP1;P1;durP2;ratioP2;P2;SDS_P1;SDS_P2;PMS_P1;PMS_P2;Temp;Humidity;BMP_temperature;BMP_pressure;BME280_temperature;BME280_humidity;BME280_pressure;Samples;Min_cycle;Max_cycle;Signal;HPM_P1;HPM_P2
2024/01/18 00:01:11;;;;;;;49.58;13.10;;;;;;;;;;5084823;28;20064;-61
2024/01/18 00:03:40;;;;;;;42.15;11.80;;;;;;;;;;5084366;28;20079;-60
2024/01/18 00:06:08;;;;;;;61.33;13.57;;;;;;;;;;5085011;28;20024;-55
2024/01/18 00:08:35;;;;;;;52.10;12.27;;;;;;;;;;5084934;28;20020;-56
2024/01/18 00:11:01;;;;;;;33.42;11.88;;;;;;;;;;5084726;28;20130;-56
2024/01/18 00:13:28;;;;;;;49.33;12.85;;;;;;;;;;5084637;28;20043;-59
2024/01/18 00:15:55;;;;;;;35.22;12.20;;;;;;;;;;5084549;28;20078;-59
2024/01/18 00:18:21;;;;;;;28.88;11.27;;;;;;;;;;5084293;28;20316;-59
2024/01/18 00:20:50;;;;;;;35.92;11.98;;;;;;;;;;5084734;28;20028;-60
2024/01/18 00:23:17;;;;;;;39.50;12.95;;;;;;;;;;5084166;28;20036;-60
2024/01/18 00:25:43;;;;;;;30.90;14.02;;;;;;;;;;5084554;28;20027;-60
2024/01/18 00:28:10;;;;;;;61.53;15.93;;;;;;;;;;5084281;28;20027;-55
2024/01/18 00:30:38;;;;;;;48.05;14.52;;;;;;;;;;5084367;28;20078;-55
2024/01/18 00:33:05;;;;;;;61.20;13.98;;;;;;;;;;5084160;28;20043;-56
2024/01/18 00:35:31;;;;;;;39.10;12.38;;;;;;;;;;5084057;28;20056;-54
2024/01/18 00:37:58;;;;;;;33.88;11.95;;;;;;;;;;5084150;28;20025;-59
2024/01/18 00:40:25;;;;;;;32.03;11.18;;;;;;;;;;5084235;28;20188;-60
2024/01/18 00:42:51;;;;;;;28.23;11.57;;;;;;;;;;5083911;28;20027;-56
2024/01/18 00:45:18;;;;;;;25.10;10.82;;;;;;;;;;5083963;28;20303;-58
2024/01/18 00:47:44;;;;;;;28.10;10.63;;;;;;;;;;5084072;28;20316;-56
2024/01/18 00:50:11;;;;;;;25.98;9.75;;;;;;;;;;5083946;28;20035;-54
2024/01/18 00:52:38;;;;;;;20.63;10.40;;;;;;;;;;5084352;28;20065;-56
2024/01/18 00:55:04;;;;;;;18.55;10.50;;;;;;;;;;5084101;28;20335;-57
2024/01/18 00:57:33;;;;;;;25.77;11.30;;;;;;;;;;5084125;28;20320;-57
2024/01/18 01:00:00;;;;;;;19.85;11.15;;;;;;;;;;5083872;28;20124;-59
2024/01/18 01:02:26;;;;;;;33.08;12.40;;;;;;;;;;5083615;28;20039;-58
2024/01/18 01:04:57;;;;;;;18.40;10.98;;;;;;;;;;5083688;28;20027;-57
2024/01/18 01:07:23;;;;;;;29.15;12.70;;;;;;;;;;5083716;28;20032;-61
2024/01/18 01:09:50;;;;;;;29.20;12.50;;;;;;;;;;5083584;28;20050;-55
2024/01/18 01:12:16;;;;;;;30.05;12.20;;;;;;;;;;5083631;28;20027;-57
2024/01/18 01:14:43;;;;;;;27.95;11.93;;;;;;;;;;5083895;28;20017;-56
2024/01/18 01:17:10;;;;;;;26.20;10.40;;;;;;;;;;5083519;28;20016;-55
2024/01/18 01:19:36;;;;;;;34.03;11.20;;;;;;;;;;5090757;28;20047;-57
2024/01/18 01:22:03;;;;;;;45.30;11.70;;;;;;;;;;5097367;28;20038;-55
2024/01/18 01:24:29;;;;;;;33.60;10.10;;;;;;;;;;5096232;28;20054;-52
2024/01/18 01:26:56;;;;;;;31.90;10.00;;;;;;;;;;5091116;28;20208;-54
2024/01/18 01:29:23;;;;;;;26.77;9.50;;;;;;;;;;5101618;28;20039;-57
2024/01/18 01:31:51;;;;;;;24.73;8.57;;;;;;;;;;5107695;28;20031;-59
2024/01/18 01:34:18;;;;;;;20.55;8.10;;;;;;;;;;5107910;28;20016;-58
2024/01/18 01:36:45;;;;;;;20.05;8.30;;;;;;;;;;5107026;28;20122;-59
2024/01/18 01:39:11;;;;;;;55.17;10.63;;;;;;;;;;5104767;28;20020;-54
2024/01/18 01:41:38;;;;;;;33.08;9.75;;;;;;;;;;5099358;28;20280;-51
2024/01/18 01:44:06;;;;;;;58.10;12.07;;;;;;;;;;5105689;28;20048;-53
2024/01/18 01:46:33;;;;;;;46.72;9.63;;;;;;;;;;5106983;28;20035;-55
2024/01/18 01:49:03;;;;;;;40.22;9.93;;;;;;;;;;5106716;28;20016;-58
2024/01/18 01:51:31;;;;;;;23.65;9.35;;;;;;;;;;5107478;28;20024;-54
2024/01/18 01:53:58;;;;;;;25.02;9.32;;;;;;;;;;5106615;28;20038;-52
2024/01/18 01:56:25;;;;;;;28.45;9.05;;;;;;;;;;5106897;28;20028;-54
2024/01/18 01:58:51;;;;;;;19.95;8.65;;;;;;;;;;5107096;28;20355;-56
2024/01/18 02:01:18;;;;;;;23.20;8.40;;;;;;;;;;5105900;28;20060;-52
2024/01/18 02:03:45;;;;;;;22.13;8.90;;;;;;;;;;5106970;28;20016;-52
2024/01/18 02:06:11;;;;;;;19.25;9.18;;;;;;;;;;5107314;28;20095;-59
2024/01/18 02:08:38;;;;;;;25.00;8.57;;;;;;;;;;5106759;28;20012;-57
2024/01/18 02:11:05;;;;;;;17.00;8.48;;;;;;;;;;5106495;28;20024;-49
2024/01/18 02:13:32;;;;;;;31.02;8.85;;;;;;;;;;5086323;28;20035;-61
2024/01/18 02:15:58;;;;;;;19.05;8.63;;;;;;;;;;5086738;28;20043;-56
2024/01/18 02:18:25;;;;;;;15.57;8.48;;;;;;;;;;5086550;28;20020;-51
2024/01/18 02:20:51;;;;;;;17.10;7.43;;;;;;;;;;5096890;28;20032;-52
2024/01/18 02:23:18;;;;;;;19.33;9.57;;;;;;;;;;5102744;28;20031;-57
2024/01/18 02:25:45;;;;;;;22.13;10.50;;;;;;;;;;5086678;28;20088;-61
2024/01/18 02:28:12;;;;;;;15.60;10.95;;;;;;;;;;5097314;28;20228;-50
2024/01/18 02:30:38;;;;;;;17.88;12.55;;;;;;;;;;5086258;28;20021;-58
2024/01/18 02:33:05;;;;;;;21.40;13.35;;;;;;;;;;5094094;28;20027;-53
2024/01/18 02:35:33;;;;;;;21.63;14.00;;;;;;;;;;5101380;28;20324;-51
2024/01/18 02:38:00;;;;;;;21.95;13.43;;;;;;;;;;5085712;28;20084;-60
2024/01/18 02:40:26;;;;;;;19.65;11.60;;;;;;;;;;5103691;28;20027;-58
2024/01/18 02:42:53;;;;;;;18.08;11.80;;;;;;;;;;5099415;28;20084;-54
2024/01/18 02:45:20;;;;;;;20.02;11.48;;;;;;;;;;5095520;28;20091;-55
2024/01/18 02:47:56;;;;;;;17.75;10.95;;;;;;;;;;5105555;28;20027;-52
2024/01/18 02:50:22;;;;;;;15.02;9.60;;;;;;;;;;5105904;28;20250;-50
2024/01/18 02:52:49;;;;;;;13.75;8.73;;;;;;;;;;5106019;28;20024;-53
2024/01/18 02:55:17;;;;;;;12.52;8.82;;;;;;;;;;5106266;28;20028;-58
2024/01/18 02:57:44;;;;;;;13.05;8.55;;;;;;;;;;5102229;28;20012;-58
2024/01/18 03:00:14;;;;;;;13.30;8.57;;;;;;;;;;5097345;28;20082;-53
2024/01/18 03:02:40;;;;;;;13.82;8.55;;;;;;;;;;5086127;28;20024;-55
2024/01/18 03:05:07;;;;;;;12.38;8.77;;;;;;;;;;5085811;28;20027;-54
2024/01/18 03:07:34;;;;;;;12.77;8.35;;;;;;;;;;5085630;28;20077;-55
2024/01/18 03:10:00;;;;;;;11.20;7.90;;;;;;;;;;5085552;28;20066;-56
2024/01/18 03:12:27;;;;;;;10.90;7.75;;;;;;;;;;5100138;28;20015;-53
2024/01/18 03:14:53;;;;;;;11.20;7.82;;;;;;;;;;5099413;28;20024;-58
2024/01/18 03:17:20;;;;;;;10.48;7.80;;;;;;;;;;5099235;28;20020;-57
2024/01/18 03:19:47;;;;;;;14.52;7.97;;;;;;;;;;5101240;28;20100;-56
2024/01/18 03:22:13;;;;;;;9.93;7.40;;;;;;;;;;5104486;28;20031;-52
2024/01/18 03:24:40;;;;;;;10.57;7.97;;;;;;;;;;5105721;28;20024;-60
2024/01/18 03:27:06;;;;;;;11.00;7.40;;;;;;;;;;5105506;28;20020;-58
2024/01/18 03:29:33;;;;;;;10.15;7.50;;;;;;;;;;5105519;28;20196;-53
2024/01/18 03:32:00;;;;;;;9.43;7.65;;;;;;;;;;5105497;28;20012;-55
2024/01/18 03:34:26;;;;;;;8.82;6.85;;;;;;;;;;5105657;28;20069;-53
2024/01/18 03:36:53;;;;;;;10.00;7.35;;;;;;;;;;5104581;28;20308;-54
2024/01/18 03:39:19;;;;;;;13.93;7.13;;;;;;;;;;5096131;28;20023;-56
2024/01/18 03:41:46;;;;;;;10.60;7.80;;;;;;;;;;5104228;28;20043;-56
2024/01/18 03:44:13;;;;;;;12.50;7.40;;;;;;;;;;5104834;28;20012;-56
2024/01/18 03:46:39;;;;;;;13.15;8.05;;;;;;;;;;5102292;28;20286;-58
2024/01/18 03:49:06;;;;;;;10.25;7.50;;;;;;;;;;5100939;28;20085;-55
2024/01/18 03:51:32;;;;;;;11.15;7.28;;;;;;;;;;5103623;28;20036;-56
2024/01/18 03:53:59;;;;;;;10.52;7.45;;;;;;;;;;5094596;28;20023;-57
2024/01/18 03:56:25;;;;;;;13.02;7.68;;;;;;;;;;5105755;28;20055;-55
2024/01/18 03:58:52;;;;;;;14.30;8.23;;;;;;;;;;5104845;28;20020;-55
2024/01/18 04:01:19;;;;;;;11.50;7.72;;;;;;;;;;5104523;28;20118;-61
2024/01/18 04:03:48;;;;;;;10.25;7.47;;;;;;;;;;5103481;28;20020;-55
2024/01/18 04:06:16;;;;;;;11.95;7.35;;;;;;;;;;5101303;28;20045;-58
2024/01/18 04:08:43;;;;;;;12.25;7.50;;;;;;;;;;5104539;28;20095;-57
2024/01/18 04:11:09;;;;;;;8.95;7.43;;;;;;;;;;5105001;28;20043;-58
2024/01/18 04:13:36;;;;;;;10.20;7.60;;;;;;;;;;5104580;28;20019;-58
2024/01/18 04:16:04;;;;;;;11.07;6.82;;;;;;;;;;5102349;28;20028;-57
2024/01/18 04:18:31;;;;;;;13.48;7.43;;;;;;;;;;5104439;28;20028;-57
2024/01/18 04:20:58;;;;;;;9.32;6.68;;;;;;;;;;5105015;28;20024;-60
2024/01/18 04:23:24;;;;;;;11.70;7.40;;;;;;;;;;5100154;28;20035;-56
2024/01/18 04:25:51;;;;;;;8.15;6.63;;;;;;;;;;5097475;28;20030;-62
2024/01/18 04:28:21;;;;;;;11.48;6.72;;;;;;;;;;5104132;28;20016;-59
2024/01/18 04:30:48;;;;;;;12.45;7.10;;;;;;;;;;5104502;28;20096;-58
2024/01/18 04:33:15;;;;;;;7.85;6.97;;;;;;;;;;5104083;28;20316;-60
2024/01/18 04:35:41;;;;;;;12.98;7.05;;;;;;;;;;5098614;28;20028;-58
2024/01/18 04:38:08;;;;;;;10.18;6.75;;;;;;;;;;5085746;28;20016;-62
2024/01/18 04:40:35;;;;;;;8.55;6.90;;;;;;;;;;5104403;28;20047;-55
2024/01/18 04:43:01;;;;;;;7.18;6.47;;;;;;;;;;5104116;28;20368;-58
2024/01/18 04:45:28;;;;;;;7.63;6.93;;;;;;;;;;5103949;28;20070;-54
2024/01/18 04:47:56;;;;;;;9.65;6.50;;;;;;;;;;5104262;28;20074;-53
2024/01/18 04:50:26;;;;;;;9.23;6.75;;;;;;;;;;5104352;28;20024;-59
2024/01/18 04:52:53;;;;;;;8.30;6.50;;;;;;;;;;5103362;28;20016;-59
2024/01/18 04:55:19;;;;;;;7.97;6.60;;;;;;;;;;5103179;28;20051;-56
2024/01/18 04:57:47;;;;;;;7.05;5.80;;;;;;;;;;5103510;28;20023;-56
2024/01/18 05:00:14;;;;;;;7.05;6.25;;;;;;;;;;5102948;28;20050;-56
2024/01/18 05:02:41;;;;;;;7.20;6.50;;;;;;;;;;5097793;28;20032;-59
2024/01/18 05:05:08;;;;;;;10.18;6.75;;;;;;;;;;5100248;28;20243;-60
2024/01/18 05:07:35;;;;;;;6.75;6.15;;;;;;;;;;5108138;28;20023;-58
2024/01/18 05:10:05;;;;;;;11.57;6.78;;;;;;;;;;5107801;28;20016;-57
2024/01/18 05:12:32;;;;;;;7.38;6.55;;;;;;;;;;5089362;28;20212;-60
2024/01/18 05:14:59;;;;;;;8.38;6.28;;;;;;;;;;5087822;28;20084;-67
2024/01/18 05:17:35;;;;;;;9.10;6.60;;;;;;;;;;5097876;28;20016;-59
2024/01/18 05:20:03;;;;;;;6.80;6.13;;;;;;;;;;5108383;28;20062;-64
2024/01/18 05:22:33;;;;;;;14.52;6.82;;;;;;;;;;5107121;28;20022;-61
2024/01/18 05:25:00;;;;;;;8.68;6.13;;;;;;;;;;5107764;28;20028;-61
2024/01/18 05:27:30;;;;;;;7.65;6.78;;;;;;;;;;5100926;28;20325;-54
2024/01/18 05:29:58;;;;;;;7.57;6.00;;;;;;;;;;5087573;28;20055;-58
2024/01/18 05:32:24;;;;;;;7.97;6.70;;;;;;;;;;5087369;28;20024;-53
2024/01/18 05:34:51;;;;;;;7.60;6.38;;;;;;;;;;5088175;28;20114;-59
2024/01/18 05:37:18;;;;;;;7.47;6.25;;;;;;;;;;5087089;28;20024;-57
2024/01/18 05:39:45;;;;;;;6.97;6.28;;;;;;;;;;5087464;28;20025;-57
2024/01/18 05:42:12;;;;;;;9.43;6.43;;;;;;;;;;5087147;28;20008;-52
2024/01/18 05:44:38;;;;;;;8.65;6.38;;;;;;;;;;5087219;28;20314;-56
2024/01/18 05:47:05;;;;;;;9.98;6.00;;;;;;;;;;5087027;28;20021;-55
2024/01/18 05:49:32;;;;;;;7.32;5.93;;;;;;;;;;5086767;28;20050;-60
2024/01/18 05:51:58;;;;;;;7.75;6.13;;;;;;;;;;5086911;28;20017;-56
2024/01/18 05:54:25;;;;;;;10.43;6.43;;;;;;;;;;5086829;28;20092;-58
2024/01/18 05:56:51;;;;;;;19.40;6.40;;;;;;;;;;5086757;28;20048;-61
2024/01/18 05:59:18;;;;;;;15.27;6.53;;;;;;;;;;5086946;28;20047;-60
2024/01/18 06:01:45;;;;;;;33.10;7.60;;;;;;;;;;5086614;28;20048;-58
2024/01/18 06:04:11;;;;;;;17.90;6.22;;;;;;;;;;5098897;28;20028;-55
2024/01/18 06:06:38;;;;;;;45.50;8.55;;;;;;;;;;5098826;28;20087;-57
2024/01/18 06:09:04;;;;;;;19.15;7.05;;;;;;;;;;5106920;28;20304;-53
2024/01/18 06:11:31;;;;;;;19.00;6.05;;;;;;;;;;5106755;28;20035;-56
2024/01/18 06:13:59;;;;;;;8.25;5.65;;;;;;;;;;5105692;28;20062;-54
2024/01/18 06:16:25;;;;;;;12.95;6.07;;;;;;;;;;5090616;28;20240;-59
2024/01/18 06:18:52;;;;;;;19.00;6.20;;;;;;;;;;5086577;28;20012;-57
2024/01/18 06:21:19;;;;;;;12.95;6.13;;;;;;;;;;5086789;28;20028;-59
2024/01/18 06:23:46;;;;;;;9.68;6.00;;;;;;;;;;5086278;28;20042;-57
2024/01/18 06:26:12;;;;;;;14.93;5.90;;;;;;;;;;5094749;28;20024;-55
2024/01/18 06:28:39;;;;;;;8.68;5.60;;;;;;;;;;5106474;28;20020;-57
2024/01/18 06:31:06;;;;;;;8.13;5.55;;;;;;;;;;5106968;28;20024;-54
2024/01/18 06:33:33;;;;;;;9.80;5.30;;;;;;;;;;5104653;28;20312;-57
2024/01/18 06:36:00;;;;;;;11.35;5.82;;;;;;;;;;5105549;28;20028;-59
2024/01/18 06:38:27;;;;;;;8.02;5.40;;;;;;;;;;5106493;28;20200;-58
2024/01/18 06:40:58;;;;;;;10.25;5.60;;;;;;;;;;5106813;28;20057;-58
2024/01/18 06:43:25;;;;;;;9.23;5.65;;;;;;;;;;5106101;28;20024;-56
2024/01/18 06:45:55;;;;;;;8.25;5.20;;;;;;;;;;5106044;28;20024;-60
2024/01/18 06:48:22;;;;;;;6.70;5.30;;;;;;;;;;5087029;28;20017;-55
2024/01/18 06:50:49;;;;;;;7.15;5.47;;;;;;;;;;5085933;28;20178;-56
2024/01/18 06:53:16;;;;;;;9.18;5.82;;;;;;;;;;5085895;28;20024;-60
2024/01/18 06:55:42;;;;;;;8.50;5.85;;;;;;;;;;5089882;28;20039;-55
2024/01/18 06:58:09;;;;;;;12.73;6.18;;;;;;;;;;5105821;28;20024;-50
2024/01/18 07:00:36;;;;;;;6.97;5.80;;;;;;;;;;5105861;28;20078;-53
2024/01/18 07:03:02;;;;;;;10.60;5.35;;;;;;;;;;5104054;28;20316;-61
2024/01/18 07:05:29;;;;;;;7.30;5.28;;;;;;;;;;5102587;28;20038;-53
2024/01/18 07:07:56;;;;;;;8.18;5.78;;;;;;;;;;5105800;28;20224;-59
2024/01/18 07:10:23;;;;;;;7.18;5.35;;;;;;;;;;5106024;28;20012;-59
2024/01/18 07:12:49;;;;;;;8.23;5.32;;;;;;;;;;5105730;28;20028;-52
2024/01/18 07:15:16;;;;;;;8.13;5.50;;;;;;;;;;5105441;28;20028;-55
2024/01/18 07:17:43;;;;;;;7.07;5.45;;;;;;;;;;5104497;28;20024;-55
2024/01/18 07:20:10;;;;;;;8.85;5.70;;;;;;;;;;5105681;28;20042;-56
2024/01/18 07:22:37;;;;;;;6.57;5.93;;;;;;;;;;5105458;28;20235;-56
2024/01/18 07:25:05;;;;;;;11.48;5.30;;;;;;;;;;5104125;28;20020;-53
2024/01/18 07:27:32;;;;;;;7.30;5.60;;;;;;;;;;5103936;28;20012;-53
2024/01/18 07:29:59;;;;;;;6.88;5.00;;;;;;;;;;5105617;28;20024;-58
2024/01/18 07:32:25;;;;;;;8.25;5.45;;;;;;;;;;5105395;28;20239;-56
2024/01/18 07:34:52;;;;;;;6.88;5.13;;;;;;;;;;5105355;28;20039;-57
2024/01/18 07:37:19;;;;;;;7.18;5.85;;;;;;;;;;5104742;28;20024;-58
2024/01/18 07:39:45;;;;;;;8.05;5.78;;;;;;;;;;5105367;28;20030;-59
2024/01/18 07:42:12;;;;;;;8.23;5.53;;;;;;;;;;5105079;28;20043;-59
2024/01/18 07:44:42;;;;;;;6.18;5.30;;;;;;;;;;5105068;28;20032;-61
2024/01/18 07:47:10;;;;;;;5.65;5.13;;;;;;;;;;5098427;28;20016;-54
2024/01/18 07:49:42;;;;;;;8.40;5.80;;;;;;;;;;5105056;28;20055;-60
2024/01/18 07:52:08;;;;;;;;;;;;;;;;;;5105442;28;20020;-61
2024/01/18 07:54:35;;;;;;;7.22;5.30;;;;;;;;;;5105039;28;19969;-59
2024/01/18 07:57:02;;;;;;;5.72;5.20;;;;;;;;;;5098134;28;20216;-56
2024/01/18 07:59:28;;;;;;;9.38;5.85;;;;;;;;;;5102596;28;20016;-60
2024/01/18 08:01:55;;;;;;;8.32;5.72;;;;;;;;;;5100702;28;20216;-56
2024/01/18 08:04:22;;;;;;;6.95;5.85;;;;;;;;;;5104473;28;20020;-52
2024/01/18 08:06:48;;;;;;;7.78;6.22;;;;;;;;;;5098191;28;20020;-55
2024/01/18 08:09:16;;;;;;;8.35;6.45;;;;;;;;;;5102667;28;20027;-59
2024/01/18 08:11:43;;;;;;;7.28;5.93;;;;;;;;;;5099965;28;20316;-59
2024/01/18 08:14:11;;;;;;;7.35;5.93;;;;;;;;;;5104565;28;20044;-58
2024/01/18 08:16:37;;;;;;;6.63;5.82;;;;;;;;;;5097887;28;20066;-53
2024/01/18 08:19:04;;;;;;;14.75;6.38;;;;;;;;;;5104354;28;20020;-55
2024/01/18 08:21:31;;;;;;;7.15;5.80;;;;;;;;;;5104816;28;20054;-56
2024/01/18 08:23:57;;;;;;;7.88;6.38;;;;;;;;;;5104282;28;20316;-57
2024/01/18 08:26:24;;;;;;;8.90;6.32;;;;;;;;;;5097590;28;20029;-59
2024/01/18 08:28:50;;;;;;;9.27;5.97;;;;;;;;;;5104263;28;20015;-59
2024/01/18 08:31:17;;;;;;;8.75;6.15;;;;;;;;;;5104765;28;20023;-59
2024/01/18 08:33:44;;;;;;;7.88;6.18;;;;;;;;;;5103516;28;20024;-57
2024/01/18 08:36:13;;;;;;;6.80;5.35;;;;;;;;;;5097361;28;20035;-60
2024/01/18 08:38:39;;;;;;;7.85;5.82;;;;;;;;;;5084101;28;20016;-61
2024/01/18 08:41:06;;;;;;;7.82;5.40;;;;;;;;;;5088975;28;20034;-58
2024/01/18 08:43:32;;;;;;;8.10;6.18;;;;;;;;;;5084003;28;20024;-59
2024/01/18 08:46:01;;;;;;;9.05;5.88;;;;;;;;;;5086132;28;20088;-54
2024/01/18 08:48:28;;;;;;;6.72;5.45;;;;;;;;;;5099823;28;20012;-65
2024/01/18 08:50:54;;;;;;;6.68;5.07;;;;;;;;;;5104538;28;20024;-64
2024/01/18 08:53:21;;;;;;;7.15;5.78;;;;;;;;;;5103221;28;20020;-58
2024/01/18 08:55:47;;;;;;;6.93;5.40;;;;;;;;;;5099729;28;20024;-56
2024/01/18 08:58:14;;;;;;;7.22;5.38;;;;;;;;;;5100817;28;20028;-61
2024/01/18 09:00:41;;;;;;;10.07;5.75;;;;;;;;;;5097578;28;20051;-57
2024/01/18 09:03:07;;;;;;;6.55;5.40;;;;;;;;;;5103900;28;20027;-49
2024/01/18 09:05:34;;;;;;;8.25;5.32;;;;;;;;;;5102317;28;20032;-57
2024/01/18 09:08:00;;;;;;;6.47;5.50;;;;;;;;;;5099457;28;20048;-53
2024/01/18 09:10:27;;;;;;;5.53;5.05;;;;;;;;;;5104186;28;20054;-56
2024/01/18 09:12:55;;;;;;;7.03;5.32;;;;;;;;;;5103759;28;20335;-55
2024/01/18 09:15:23;;;;;;;11.35;6.32;;;;;;;;;;5102518;28;20028;-56
2024/01/18 09:17:49;;;;;;;8.13;5.93;;;;;;;;;;5099207;28;20024;-55
2024/01/18 09:20:16;;;;;;;8.00;5.32;;;;;;;;;;5103852;28;20024;-56
2024/01/18 09:22:43;;;;;;;7.95;5.80;;;;;;;;;;5102903;28;20023;-58
2024/01/18 09:25:09;;;;;;;7.82;5.10;;;;;;;;;;5103414;28;20061;-54
2024/01/18 09:27:36;;;;;;;9.43;5.50;;;;;;;;;;5097560;28;20335;-59
2024/01/18 09:30:03;;;;;;;8.13;5.30;;;;;;;;;;5103944;28;20024;-54
2024/01/18 09:32:29;;;;;;;7.47;5.22;;;;;;;;;;5097229;28;20023;-58
2024/01/18 09:34:56;;;;;;;9.55;5.82;;;;;;;;;;5103635;28;20061;-56
2024/01/18 09:37:22;;;;;;;7.15;5.63;;;;;;;;;;5095103;28;20212;-59
2024/01/18 09:39:49;;;;;;;7.53;5.47;;;;;;;;;;5083564;28;20030;-56
2024/01/18 09:42:17;;;;;;;9.23;5.25;;;;;;;;;;5083330;28;20072;-58
2024/01/18 09:44:47;;;;;;;8.23;5.47;;;;;;;;;;5083212;28;20040;-57
2024/01/18 09:47:18;;;;;;;8.75;5.35;;;;;;;;;;5094312;28;20028;-57
2024/01/18 09:49:46;;;;;;;11.52;5.05;;;;;;;;;;5107631;28;20047;-61
2024/01/18 09:52:13;;;;;;;8.70;5.10;;;;;;;;;;5107243;28;20016;-52
2024/01/18 09:54:42;;;;;;;9.50;5.20;;;;;;;;;;5106542;28;20024;-53
2024/01/18 09:57:13;;;;;;;10.38;5.30;;;;;;;;;;5100389;28;20020;-50
2024/01/18 09:59:44;;;;;;;7.35;5.30;;;;;;;;;;5107164;28;20031;-59
2024/01/18 10:02:12;;;;;;;12.95;5.55;;;;;;;;;;5107125;28;20016;-54
2024/01/18 10:04:40;;;;;;;8.20;5.60;;;;;;;;;;5106960;28;20097;-56
2024/01/18 10:07:08;;;;;;;9.68;5.60;;;;;;;;;;5100281;28;20020;-57
2024/01/18 10:09:35;;;;;;;7.43;5.60;;;;;;;;;;5104987;28;20031;-55
2024/01/18 10:12:01;;;;;;;12.48;5.40;;;;;;;;;;5097194;28;20024;-60
2024/01/18 10:14:45;;;;;;;10.88;5.70;;;;;;;;;;5105987;28;20054;-60
2024/01/18 10:17:21;;;;;;;15.05;5.78;;;;;;;;;;5100363;28;20058;-58
2024/01/18 10:20:13;;;;;;;7.00;5.07;;;;;;;;;;5103163;28;20032;-56
2024/01/18 10:22:41;;;;;;;7.57;4.90;;;;;;;;;;5086342;28;20025;-60
2024/01/18 10:25:13;;;;;;;9.77;5.45;;;;;;;;;;5086486;28;20035;-57
2024/01/18 10:27:43;;;;;;;12.48;5.63;;;;;;;;;;5100496;28;20058;-60
2024/01/18 10:30:15;;;;;;;10.63;6.18;;;;;;;;;;5106789;28;20028;-58
2024/01/18 10:32:45;;;;;;;13.35;5.47;;;;;;;;;;5106104;28;20083;-57
2024/01/18 10:35:25;;;;;;;21.83;5.97;;;;;;;;;;5104299;28;20027;-56
2024/01/18 10:38:02;;;;;;;11.50;5.60;;;;;;;;;;5090573;28;20016;-58
2024/01/18 10:40:31;;;;;;;14.43;5.88;;;;;;;;;;5086249;28;20021;-58
2024/01/18 10:42:59;;;;;;;24.85;6.25;;;;;;;;;;5085928;28;20047;-58
2024/01/18 10:45:29;;;;;;;13.18;5.43;;;;;;;;;;5084820;28;20024;-59
2024/01/18 10:47:56;;;;;;;13.20;6.07;;;;;;;;;;5090305;28;20012;-60
2024/01/18 10:50:23;;;;;;;12.50;5.63;;;;;;;;;;5086122;28;20028;-59
2024/01/18 10:52:49;;;;;;;15.93;6.03;;;;;;;;;;5085817;28;20024;-58
2024/01/18 10:55:16;;;;;;;14.57;5.78;;;;;;;;;;5085953;28;20056;-59
2024/01/18 10:57:43;;;;;;;19.38;6.15;;;;;;;;;;5100501;28;20091;-54
2024/01/18 11:00:15;;;;;;;14.00;6.18;;;;;;;;;;5105569;28;20056;-55
2024/01/18 11:02:44;;;;;;;15.80;6.32;;;;;;;;;;5105520;28;20020;-55
2024/01/18 11:05:17;;;;;;;17.08;6.65;;;;;;;;;;5105432;28;20024;-59
2024/01/18 11:07:43;;;;;;;12.65;6.05;;;;;;;;;;5091000;28;20066;-57
2024/01/18 11:10:11;;;;;;;16.63;5.95;;;;;;;;;;5085810;28;20029;-60
2024/01/18 11:12:41;;;;;;;16.08;5.82;;;;;;;;;;5085184;28;20062;-53
2024/01/18 11:15:10;;;;;;;14.38;6.05;;;;;;;;;;5085209;28;20023;-58
2024/01/18 11:17:37;;;;;;;13.68;5.90;;;;;;;;;;5087961;28;20075;-57
2024/01/18 11:20:05;;;;;;;18.15;6.32;;;;;;;;;;5085415;28;20111;-51
2024/01/18 11:22:32;;;;;;;18.27;6.78;;;;;;;;;;5085118;28;20024;-53
2024/01/18 11:25:05;;;;;;;19.55;6.32;;;;;;;;;;5113609;28;20059;-54
2024/01/18 11:27:36;;;;;;;39.80;7.20;;;;;;;;;;5125887;28;20351;-56
2024/01/18 11:30:03;;;;;;;27.60;7.13;;;;;;;;;;5124462;28;20024;-61
2024/01/18 11:32:29;;;;;;;28.50;7.50;;;;;;;;;;5124064;28;20016;-64
2024/01/18 11:35:08;;;;;;;28.58;7.22;;;;;;;;;;5124106;28;20028;-62
2024/01/18 11:37:35;;;;;;;27.75;7.35;;;;;;;;;;5123292;28;20008;-55
2024/01/18 11:40:05;;;;;;;24.98;7.55;;;;;;;;;;5122709;27;20012;-58
2024/01/18 11:42:33;;;;;;;27.40;7.85;;;;;;;;;;5123758;28;20012;-54
2024/01/18 11:45:13;;;;;;;23.67;7.90;;;;;;;;;;5125027;28;20185;-49
2024/01/18 11:47:41;;;;;;;31.67;8.50;;;;;;;;;;5125501;28;20064;-51
2024/01/18 11:50:10;;;;;;;25.13;8.45;;;;;;;;;;5125665;28;20027;-56
2024/01/18 11:52:38;;;;;;;28.83;8.00;;;;;;;;;;5125461;28;20012;-57
2024/01/18 11:55:05;;;;;;;26.77;8.00;;;;;;;;;;5125598;28;20036;-55
2024/01/18 11:57:32;;;;;;;31.52;8.48;;;;;;;;;;5125547;28;20019;-60
2024/01/18 12:00:00;;;;;;;33.28;9.77;;;;;;;;;;5125227;28;20054;-57
2024/01/18 12:02:29;;;;;;;26.05;9.15;;;;;;;;;;5125248;28;20028;-57
2024/01/18 12:04:56;;;;;;;29.30;8.82;;;;;;;;;;5125493;28;20028;-63
2024/01/18 12:07:23;;;;;;;33.33;10.00;;;;;;;;;;5125100;28;20026;-63
2024/01/18 12:09:52;;;;;;;42.08;10.02;;;;;;;;;;5125083;28;20050;-59
2024/01/18 12:12:19;;;;;;;40.78;10.57;;;;;;;;;;5124905;28;20288;-62
2024/01/18 12:14:47;;;;;;;46.92;10.70;;;;;;;;;;5125031;28;20091;-64
2024/01/18 12:17:14;;;;;;;43.40;11.00;;;;;;;;;;5125120;28;20083;-53
2024/01/18 12:19:45;;;;;;;39.85;10.65;;;;;;;;;;5125100;28;20028;-60
2024/01/18 12:22:13;;;;;;;40.00;9.45;;;;;;;;;;5123683;28;20016;-60
2024/01/18 12:24:40;;;;;;;41.30;8.95;;;;;;;;;;5123660;28;20108;-58
2024/01/18 12:27:07;;;;;;;39.95;10.10;;;;;;;;;;5124938;27;20015;-56
2024/01/18 12:29:34;;;;;;;33.13;8.60;;;;;;;;;;5124745;28;20023;-58
2024/01/18 12:32:02;;;;;;;36.85;8.95;;;;;;;;;;5125132;28;20316;-68
2024/01/18 12:34:29;;;;;;;53.35;10.18;;;;;;;;;;5124883;28;20084;-66
2024/01/18 12:37:03;;;;;;;27.58;7.85;;;;;;;;;;5124845;28;20012;-60
2024/01/18 12:39:34;;;;;;;22.08;7.25;;;;;;;;;;5124862;28;20027;-60
2024/01/18 12:42:01;;;;;;;22.33;7.13;;;;;;;;;;5124873;28;20027;-53
2024/01/18 12:44:29;;;;;;;21.92;7.13;;;;;;;;;;5124497;28;20031;-54
2024/01/18 12:46:55;;;;;;;38.38;7.97;;;;;;;;;;5125204;28;20065;-62
2024/01/18 12:49:24;;;;;;;28.55;7.38;;;;;;;;;;5123386;28;20042;-62
2024/01/18 12:51:53;;;;;;;15.40;6.72;;;;;;;;;;5124790;28;20026;-61
2024/01/18 12:54:25;;;;;;;25.05;7.60;;;;;;;;;;5124725;28;20023;-61
2024/01/18 12:57:11;;;;;;;20.27;6.53;;;;;;;;;;5124592;28;20094;-63
2024/01/18 12:59:38;;;;;;;23.33;7.20;;;;;;;;;;5124548;28;20047;-63
2024/01/18 13:02:05;;;;;;;23.52;6.85;;;;;;;;;;5124525;28;20089;-54
2024/01/18 13:04:32;;;;;;;19.45;7.22;;;;;;;;;;5124882;28;20031;-61
2024/01/18 13:06:59;;;;;;;11.27;6.15;;;;;;;;;;5124710;28;20051;-55
2024/01/18 13:09:30;;;;;;;11.77;6.57;;;;;;;;;;5124455;28;20016;-55
2024/01/18 13:11:57;;;;;;;17.42;6.18;;;;;;;;;;5124756;28;20024;-67
2024/01/18 13:14:24;;;;;;;18.80;6.18;;;;;;;;;;5124704;28;20020;-58
2024/01/18 13:16:53;;;;;;;10.63;5.97;;;;;;;;;;5124539;28;20093;-59
2024/01/18 13:19:20;;;;;;;12.82;5.97;;;;;;;;;;5124395;28;20080;-58
2024/01/18 13:21:53;;;;;;;14.98;6.13;;;;;;;;;;5124677;28;20028;-60
2024/01/18 13:24:19;;;;;;;;;;;;;;;;;;5128444;28;20028;-55
2024/01/18 13:26:47;;;;;;;10.40;5.65;;;;;;;;;;5128480;28;20202;-57
2024/01/18 13:29:16;;;;;;;8.70;5.60;;;;;;;;;;5128838;28;20031;-59
2024/01/18 13:31:42;;;;;;;12.30;5.75;;;;;;;;;;5128272;27;20016;-59
2024/01/18 13:34:09;;;;;;;9.32;5.68;;;;;;;;;;5128540;28;20027;-57
2024/01/18 13:36:39;;;;;;;15.85;6.15;;;;;;;;;;5128161;28;20035;-60
2024/01/18 13:39:08;;;;;;;14.68;6.20;;;;;;;;;;5128032;28;20258;-55
2024/01/18 13:41:36;;;;;;;11.70;5.78;;;;;;;;;;5113878;28;20034;-59
2024/01/18 13:44:03;;;;;;;12.52;6.28;;;;;;;;;;5095308;28;20024;-57
2024/01/18 13:46:31;;;;;;;7.28;5.72;;;;;;;;;;5087110;28;20182;-57
2024/01/18 13:48:57;;;;;;;13.85;5.55;;;;;;;;;;5087160;28;20017;-56
2024/01/18 13:51:24;;;;;;;8.43;5.88;;;;;;;;;;5086868;28;20032;-55
2024/01/18 13:53:51;;;;;;;10.40;5.70;;;;;;;;;;5085350;28;20066;-57
2024/01/18 13:56:18;;;;;;;11.40;5.95;;;;;;;;;;5086516;28;20024;-59
2024/01/18 13:58:45;;;;;;;16.52;5.90;;;;;;;;;;5086558;28;20357;-56
2024/01/18 14:01:12;;;;;;;8.73;5.88;;;;;;;;;;5085366;28;20052;-58
2024/01/18 14:03:43;;;;;;;11.48;6.13;;;;;;;;;;5085880;28;20033;-54
2024/01/18 14:06:15;;;;;;;10.80;5.80;;;;;;;;;;5086135;28;20227;-58
2024/01/18 14:21:27;;;;;;;14.30;7.50;;;;;;;;;;5142196;27;20375;-57
2024/01/18 14:23:53;;;;;;;12.32;7.57;;;;;;;;;;5142273;28;20055;-58
2024/01/18 14:26:20;;;;;;;11.75;7.82;;;;;;;;;;5142177;28;20016;-55
2024/01/18 14:28:47;;;;;;;12.13;7.90;;;;;;;;;;5141777;28;20072;-57
2024/01/18 14:31:14;;;;;;;12.70;8.40;;;;;;;;;;5141875;28;20023;-55
2024/01/18 14:33:40;;;;;;;13.35;8.40;;;;;;;;;;5142010;28;20391;-56
2024/01/18 14:36:07;;;;;;;11.25;8.93;;;;;;;;;;5141832;28;20335;-55
2024/01/18 14:38:34;;;;;;;12.32;8.52;;;;;;;;;;5141772;28;20412;-59
2024/01/18 14:41:00;;;;;;;11.05;8.50;;;;;;;;;;5141917;28;20345;-55
2024/01/18 14:43:27;;;;;;;13.32;8.35;;;;;;;;;;5141614;28;20012;-56
2024/01/18 14:45:53;;;;;;;15.25;8.25;;;;;;;;;;5141673;28;20312;-55
2024/01/18 14:48:20;;;;;;;14.73;8.00;;;;;;;;;;5141563;28;20247;-57